Time;durP1;ratioP1;P1;durP2;ratioP2;P2;SDS_P1;SDS_P2;PMS_P1;PMS_P2;Temp;Humidity;BMP_temperature;BMP_pressure;BME280_temperature;BME280_humidity;BME280_pressure;Samples;Min_cycle;Max_cycle;Signal;HPM_P1;HPM_P2
2023/08/29 00:00:27;;;;;;;15.15;7.20;;;;;;;22.79;100.00;98966.88;5589448;31;34530;-68
2023/08/29 00:03:33;;;;;;;14.95;7.37;;;;;;;22.75;100.00;98971.22;5587907;31;33957;-68
2023/08/29 00:06:35;;;;;;;13.27;6.80;;;;;;;22.73;100.00;98976.91;5589033;31;33959;-68
2023/08/29 00:09:38;;;;;;;15.52;7.05;;;;;;;22.75;100.00;98987.44;5589138;31;34426;-68
2023/08/29 00:12:41;;;;;;;13.88;6.65;;;;;;;22.77;100.00;98996.88;5589011;31;33952;-68
2023/08/29 00:15:44;;;;;;;15.50;6.93;;;;;;;22.74;100.00;98986.63;5588938;31;33845;-68
2023/08/29 00:18:46;;;;;;;15.50;6.43;;;;;;;22.69;100.00;98989.34;5588903;31;33756;-68
2023/08/29 00:21:49;;;;;;;17.48;7.00;;;;;;;22.60;100.00;98992.91;5588815;31;33893;-68
2023/08/29 00:24:52;;;;;;;11.63;6.90;;;;;;;22.60;100.00;99009.13;5588728;31;34125;-68
2023/08/29 00:27:55;;;;;;;11.95;6.55;;;;;;;22.63;100.00;99003.16;5587988;31;33987;-68
2023/08/29 00:30:58;;;;;;;12.43;6.80;;;;;;;22.64;100.00;98988.56;5588657;31;33838;-69
2023/08/29 00:34:00;;;;;;;14.32;6.82;;;;;;;22.63;100.00;98989.66;5588725;31;35309;-68
2023/08/29 00:37:06;;;;;;;13.18;7.05;;;;;;;22.61;100.00;99021.56;5588837;31;33750;-67
2023/08/29 00:40:10;;;;;;;13.55;7.03;;;;;;;22.47;100.00;99035.69;5587830;31;33791;-68
2023/08/29 00:43:14;;;;;;;11.60;6.57;;;;;;;22.47;100.00;99041.06;5588460;31;34501;-68
2023/08/29 00:46:16;;;;;;;15.45;7.10;;;;;;;22.58;100.00;99031.03;5588340;31;33841;-68
2023/08/29 00:49:23;;;;;;;13.52;7.32;;;;;;;22.70;100.00;99018.03;5588343;31;33836;-68
2023/08/29 00:52:26;;;;;;;15.52;7.28;;;;;;;22.68;100.00;99014.75;5588635;31;33902;-68
2023/08/29 00:55:30;;;;;;;13.43;6.68;;;;;;;22.64;100.00;99023.72;5588486;31;33998;-69
2023/08/29 00:58:34;;;;;;;15.23;6.95;;;;;;;22.65;100.00;99041.56;5587497;31;33764;-68
2023/08/29 01:01:36;;;;;;;11.93;7.12;;;;;;;22.64;100.00;99051.56;5588171;31;33686;-68
2023/08/29 01:04:39;;;;;;;12.60;6.70;;;;;;;22.74;100.00;99064.22;5588129;31;34539;-68
2023/08/29 01:07:42;;;;;;;14.18;6.65;;;;;;;22.70;100.00;99049.63;5587989;31;33857;-68
2023/08/29 01:11:32;;;;;;;11.20;6.43;;;;;;;22.72;100.00;99055.59;5587947;31;34932;-68
2023/08/29 01:14:54;;;;;;;13.48;7.00;;;;;;;22.63;100.00;99079.66;5576081;31;33894;-68
2023/08/29 01:18:01;;;;;;;11.65;6.47;;;;;;;22.60;100.00;99092.94;5591021;31;33901;-68
2023/08/29 01:21:17;;;;;;;11.60;6.68;;;;;;;22.58;100.00;99086.97;5590779;31;33907;-68
2023/08/29 01:24:38;;;;;;;15.73;6.65;;;;;;;22.48;100.00;99063.50;5590777;31;34958;-68
2023/08/29 01:27:41;;;;;;;12.73;6.43;;;;;;;22.45;100.00;99064.06;5590544;31;34100;-68
2023/08/29 01:30:45;;;;;;;12.90;6.68;;;;;;;22.47;100.00;99078.91;5591037;31;33946;-69
2023/08/29 01:33:49;;;;;;;14.27;6.62;;;;;;;22.46;100.00;99081.91;5589776;31;33916;-68
2023/08/29 01:36:52;;;;;;;16.50;6.70;;;;;;;22.58;100.00;99062.66;5589881;31;34831;-68
2023/08/29 01:39:55;;;;;;;9.98;6.32;;;;;;;22.39;100.00;99055.19;5590605;31;34547;-68
2023/08/29 01:42:58;;;;;;;11.55;6.10;;;;;;;22.33;100.00;99037.38;5589661;31;34415;-68
2023/08/29 01:46:00;;;;;;;11.70;6.25;;;;;;;22.25;100.00;99042.53;5590025;31;33788;-68
2023/08/29 01:49:04;;;;;;;13.75;6.60;;;;;;;22.23;100.00;99047.41;5590806;31;35282;-68
2023/08/29 01:52:07;;;;;;;14.05;6.78;;;;;;;22.17;100.00;99033.13;5590359;31;34433;-68
2023/08/29 01:55:10;;;;;;;12.75;6.30;;;;;;;22.09;100.00;99023.69;5590458;31;34003;-67
2023/08/29 01:58:13;;;;;;;10.77;6.65;;;;;;;21.99;100.00;99018.31;5590454;31;34974;-68
2023/08/29 02:01:16;;;;;;;15.45;6.68;;;;;;;21.92;100.00;99019.66;5590351;31;34857;-68
2023/08/29 02:04:25;;;;;;;13.30;6.75;;;;;;;21.81;100.00;99026.97;5590278;31;34429;-68
2023/08/29 02:07:28;;;;;;;11.75;6.28;;;;;;;21.81;100.00;99018.06;5590122;31;33872;-69
2023/08/29 02:10:31;;;;;;;11.05;6.97;;;;;;;21.82;100.00;99009.72;5590263;31;34534;-68
2023/08/29 02:13:34;;;;;;;12.57;6.53;;;;;;;21.73;100.00;99005.13;5590402;31;33847;-68
2023/08/29 02:16:38;;;;;;;10.45;6.43;;;;;;;21.60;100.00;99001.09;5590149;31;33816;-68
2023/08/29 02:19:40;;;;;;;11.68;6.93;;;;;;;21.60;100.00;99010.00;5590136;31;33905;-68
2023/08/29 02:22:43;;;;;;;12.07;6.90;;;;;;;21.65;100.00;99006.50;5590123;31;34745;-68
2023/08/29 02:25:47;;;;;;;16.40;7.10;;;;;;;21.86;100.00;99007.25;5589368;31;35314;-69
2023/08/29 02:28:53;;;;;;;16.05;7.07;;;;;;;21.96;100.00;99037.78;5590260;31;34036;-68
2023/08/29 02:31:56;;;;;;;13.62;6.60;;;;;;;21.81;100.00;99053.97;5590031;31;33857;-68
2023/08/29 02:35:01;;;;;;;11.68;6.65;;;;;;;21.86;100.00;99021.56;5589959;31;33816;-68
2023/08/29 02:38:04;;;;;;;8.75;6.20;;;;;;;21.86;100.00;99021.56;5590036;31;34439;-68
2023/08/29 02:41:11;;;;;;;10.95;6.68;;;;;;;21.90;100.00;99000.22;5590262;31;34537;-68
2023/08/29 02:44:14;;;;;;;12.93;7.22;;;;;;;21.84;100.00;98987.81;5589063;31;33828;-69
2023/08/29 02:47:17;;;;;;;9.88;6.53;;;;;;;21.69;100.00;99005.66;5589984;31;33878;-69
2023/08/29 02:50:19;;;;;;;11.98;6.45;;;;;;;21.69;100.00;98965.19;5589959;31;34547;-69
2023/08/29 02:53:22;;;;;;;11.25;6.75;;;;;;;21.61;100.00;98954.13;5589208;31;33867;-69
2023/08/29 02:56:25;;;;;;;12.60;7.15;;;;;;;21.62;100.00;98958.47;5589859;31;33975;-70
2023/08/29 02:59:28;;;;;;;13.45;6.72;;;;;;;21.74;100.00;98972.44;5589809;31;32539;-69
2023/08/29 03:02:31;;;;;;;12.48;6.57;;;;;;;21.72;100.00;98976.53;5589762;31;33902;-69
2023/08/29 03:05:34;;;;;;;12.98;6.82;;;;;;;21.71;100.00;98983.00;5589065;31;33888;-69
2023/08/29 03:08:38;;;;;;;12.70;6.85;;;;;;;21.70;100.00;98987.59;5590051;31;34303;-69
2023/08/29 03:11:41;;;;;;;11.20;6.62;;;;;;;21.76;100.00;98991.09;5589730;31;33914;-69
2023/08/29 03:14:44;;;;;;;12.80;6.93;;;;;;;21.76;100.00;98985.69;5589988;31;33985;-69
2023/08/29 03:17:47;;;;;;;11.55;6.70;;;;;;;21.78;100.00;98984.34;5589944;31;34563;-69
2023/08/29 03:20:50;;;;;;;11.50;6.75;;;;;;;21.89;100.00;98990.50;5589683;31;34584;-68
2023/08/29 03:23:53;;;;;;;11.68;6.57;;;;;;;21.90;100.00;98995.63;5589604;31;33918;-69
2023/08/29 03:26:55;;;;;;;11.20;7.15;;;;;;;22.00;100.00;98987.53;5589098;31;33839;-68
2023/08/29 03:29:58;;;;;;;12.37;6.80;;;;;;;22.01;100.00;98996.44;5589391;31;34305;-69
2023/08/29 03:33:01;;;;;;;11.90;6.68;;;;;;;21.91;100.00;98991.03;5589503;31;34049;-69
2023/08/29 03:36:04;;;;;;;12.57;6.60;;;;;;;22.06;100.00;98999.12;5589344;31;34416;-69
2023/08/29 03:39:07;;;;;;;14.20;7.15;;;;;;;21.98;100.00;98999.69;5589476;31;34529;-71
2023/08/29 03:42:10;;;;;;;12.77;6.55;;;;;;;21.82;100.00;98990.81;5589402;31;33974;-69
2023/08/29 03:45:13;;;;;;;12.10;7.00;;;;;;;21.78;100.00;98991.62;5588588;31;34517;-68
2023/08/29 03:48:15;;;;;;;12.95;7.05;;;;;;;21.62;100.00;98988.97;5589401;31;33933;-68
2023/08/29 03:51:30;;;;;;;12.57;7.25;;;;;;;21.56;100.00;98973.84;5589215;31;33756;-68
2023/08/29 03:54:33;;;;;;;11.65;6.90;;;;;;;21.58;100.00;98966.31;5588621;31;33837;-67
2023/08/29 03:57:36;;;;;;;14.85;6.72;;;;;;;21.64;100.00;98959.78;5589309;31;34496;-67
2023/08/29 04:00:39;;;;;;;11.23;6.25;;;;;;;21.72;100.00;98969.22;5588670;31;34612;-68
2023/08/29 04:03:42;;;;;;;15.32;7.15;;;;;;;21.72;100.00;98966.53;5589185;31;34495;-68
2023/08/29 04:06:45;;;;;;;10.30;6.60;;;;;;;21.80;100.00;98959.75;5588947;31;33779;-68
2023/08/29 04:09:48;;;;;;;12.20;6.60;;;;;;;21.85;100.00;98959.72;5589086;31;34877;-68
2023/08/29 04:12:51;;;;;;;17.10;7.28;;;;;;;21.82;100.00;98953.00;5588231;31;33973;-68
2023/08/29 04:16:01;;;;;;;12.75;6.68;;;;;;;21.71;100.00;98959.50;5589305;31;33936;-68
2023/08/29 04:19:04;;;;;;;12.73;6.93;;;;;;;21.71;100.00;98964.09;5588167;31;33861;-69
2023/08/29 04:22:07;;;;;;;12.00;6.75;;;;;;;21.79;100.00;98969.75;5588896;31;33877;-68
2023/08/29 04:25:10;;;;;;;20.83;7.07;;;;;;;21.84;100.00;98983.22;5588836;31;34040;-67
2023/08/29 04:28:19;;;;;;;13.32;7.22;;;;;;;21.89;100.00;98994.00;5589083;31;33877;-68
2023/08/29 04:31:23;;;;;;;12.68;6.85;;;;;;;22.15;100.00;99008.28;5588524;31;33989;-68
2023/08/29 04:34:26;;;;;;;18.02;6.78;;;;;;;22.16;100.00;99020.69;5588649;31;34462;-68
2023/08/29 04:37:29;;;;;;;12.52;6.55;;;;;;;22.23;100.00;99015.78;5588366;31;33932;-67
2023/08/29 04:40:32;;;;;;;12.15;6.57;;;;;;;22.34;100.00;99006.56;5588721;31;33913;-68
2023/08/29 04:43:34;;;;;;;12.55;6.57;;;;;;;22.37;100.00;99005.19;5588269;31;33774;-68
2023/08/29 04:46:37;;;;;;;12.90;6.53;;;;;;;22.25;100.00;99013.62;5588462;31;33798;-68
2023/08/29 04:49:41;;;;;;;12.40;6.43;;;;;;;22.22;100.00;99010.69;5589962;31;33785;-68
2023/08/29 04:52:44;;;;;;;16.90;6.22;;;;;;;22.17;100.00;99016.09;5590227;31;33795;-68
2023/08/29 04:55:46;;;;;;;13.52;6.22;;;;;;;22.18;100.00;99020.41;5590604;31;35342;-68
2023/08/29 04:58:49;;;;;;;14.30;6.68;;;;;;;22.24;100.00;99024.72;5590788;31;34640;-68
2023/08/29 05:01:52;;;;;;;16.02;6.40;;;;;;;22.29;100.00;99041.72;5590382;31;33978;-68
2023/08/29 05:04:55;;;;;;;11.73;6.10;;;;;;;22.48;100.00;99025.69;5591046;31;34516;-67
2023/08/29 05:07:57;;;;;;;11.23;5.90;;;;;;;22.41;100.00;99041.41;5590699;31;33776;-67
2023/08/29 05:11:01;;;;;;;13.05;6.25;;;;;;;22.56;100.00;99045.94;5590992;31;33753;-68
2023/08/29 05:14:04;;;;;;;11.55;5.60;;;;;;;22.74;100.00;99035.31;5590667;31;33817;-68
2023/08/29 05:17:09;;;;;;;10.90;5.82;;;;;;;22.61;100.00;99041.28;5591031;31;34574;-67
2023/08/29 05:20:12;;;;;;;12.88;5.90;;;;;;;22.60;100.00;99055.91;5590661;31;34790;-68
2023/08/29 05:23:15;;;;;;;13.10;5.70;;;;;;;22.61;100.00;99043.97;5590411;31;33819;-68
2023/08/29 05:26:18;;;;;;;11.98;5.90;;;;;;;22.81;100.00;99048.50;5590717;31;34441;-67
2023/08/29 05:29:21;;;;;;;18.00;6.15;;;;;;;22.73;100.00;99046.38;5590744;31;33885;-68
2023/08/29 05:32:23;;;;;;;17.10;6.12;;;;;;;22.81;100.00;99067.44;5589473;31;33989;-68
2023/08/29 05:35:35;;;;;;;15.95;6.10;;;;;;;22.65;100.00;99050.47;5590263;31;34622;-69
2023/08/29 05:38:39;;;;;;;34.05;6.03;;;;;;;22.79;100.00;99059.62;5589492;31;33734;-69
2023/08/29 05:41:42;;;;;;;23.02;6.05;;;;;;;22.87;100.00;99060.91;5590428;31;34583;-68
2023/08/29 05:44:45;;;;;;;14.25;5.72;;;;;;;22.90;100.00;99058.44;5589409;31;33111;-68
2023/08/29 05:47:48;;;;;;;16.02;6.82;;;;;;;22.78;100.00;99046.38;5590212;31;34553;-68
2023/08/29 05:50:51;;;;;;;15.27;5.85;;;;;;;22.75;100.00;99049.63;5589695;31;33834;-68
2023/08/29 05:53:54;;;;;;;18.62;5.90;;;;;;;23.05;100.00;99046.72;5590239;31;33772;-68
2023/08/29 05:56:56;;;;;;;13.07;5.90;;;;;;;23.30;100.00;99043.81;5590224;31;34024;-68
2023/08/29 05:59:59;;;;;;;17.52;6.50;;;;;;;23.38;100.00;99042.44;5589464;31;33982;-67
2023/08/29 06:03:04;;;;;;;12.43;5.87;;;;;;;23.51;100.00;99025.53;5589941;31;35086;-68
2023/08/29 06:06:07;;;;;;;11.35;5.18;;;;;;;23.28;100.00;99035.19;5589169;31;33898;-68
2023/08/29 06:09:10;;;;;;;13.70;5.78;;;;;;;23.30;100.00;99032.19;5589930;31;33810;-68
2023/08/29 06:12:13;;;;;;;13.85;5.80;;;;;;;23.51;100.00;99024.72;5589842;31;33851;-68
2023/08/29 06:15:16;;;;;;;15.65;5.90;;;;;;;23.56;100.00;99033.63;5590339;31;34536;-68
2023/08/29 06:18:19;;;;;;;16.20;5.82;;;;;;;23.73;100.00;99041.28;5589143;31;34006;-68
2023/08/29 06:21:21;;;;;;;15.48;5.87;;;;;;;23.70;100.00;99050.81;5589750;31;34446;-68
2023/08/29 06:24:24;;;;;;;17.23;6.00;;;;;;;23.86;100.00;99037.12;5589726;31;33729;-68
2023/08/29 06:27:28;;;;;;;15.88;6.00;;;;;;;23.87;100.00;99034.09;5589518;31;33823;-69
2023/08/29 06:30:31;;;;;;;14.02;5.90;;;;;;;23.52;100.00;99048.00;5589642;31;33927;-69
2023/08/29 06:33:37;;;;;;;12.55;5.53;;;;;;;23.59;100.00;99029.53;5589610;31;34027;-68
2023/08/29 06:36:41;;;;;;;14.30;5.57;;;;;;;23.25;100.00;99051.97;5589226;31;33713;-68
2023/08/29 06:39:44;;;;;;;17.62;6.18;;;;;;;23.23;100.00;99059.59;5589640;31;33879;-68
2023/08/29 06:42:47;;;;;;;11.85;5.93;;;;;;;23.07;100.00;99066.19;5589515;31;34636;-68
2023/08/29 06:45:50;;;;;;;15.75;6.60;;;;;;;22.93;100.00;99063.31;5589644;31;35186;-68
2023/08/29 06:48:53;;;;;;;12.85;6.10;;;;;;;22.90;100.00;99039.50;5589407;31;34552;-68
2023/08/29 06:51:56;;;;;;;22.30;6.60;;;;;;;22.78;100.00;99030.94;5589565;31;33914;-67
2023/08/29 06:54:58;;;;;;;12.45;6.75;;;;;;;22.12;100.00;99052.06;5589493;31;34066;-68
2023/08/29 06:58:04;;;;;;;19.52;7.40;;;;;;;21.83;100.00;99068.03;5589514;31;34031;-67
2023/08/29 07:01:08;;;;;;;16.58;6.82;;;;;;;21.98;100.00;99105.81;5589559;31;33745;-68
2023/08/29 07:04:11;;;;;;;18.02;6.20;;;;;;;22.19;100.00;99139.00;5589606;31;34680;-69
2023/08/29 07:07:14;;;;;;;17.98;6.20;;;;;;;22.19;100.00;99157.91;5589509;31;33834;-72
2023/08/29 07:10:17;;;;;;;22.25;8.02;;;;;;;21.73;100.00;99218.41;5589491;31;34601;-72
2023/08/29 07:13:20;;;;;;;22.73;8.60;;;;;;;21.23;100.00;99209.94;5589380;31;34180;-70
2023/08/29 07:16:22;;;;;;;19.10;8.18;;;;;;;20.77;100.00;99214.28;5589825;31;34477;-74
2023/08/29 07:19:28;;;;;;;21.65;8.07;;;;;;;20.53;100.00;99199.59;5589511;31;33765;-71
2023/08/29 07:22:31;;;;;;;19.02;8.18;;;;;;;20.33;100.00;99203.00;5589602;31;34861;-72
2023/08/29 07:25:44;;;;;;;18.02;8.75;;;;;;;20.17;100.00;99176.19;5589755;31;33869;-70
2023/08/29 07:28:47;;;;;;;16.55;7.80;;;;;;;20.00;100.00;99181.72;5589483;31;33908;-69
2023/08/29 07:31:50;;;;;;;22.77;9.23;;;;;;;19.77;100.00;99171.31;5589457;31;33942;-69
2023/08/29 07:34:55;;;;;;;16.58;9.20;;;;;;;19.80;100.00;99160.06;5589328;31;33921;-67
2023/08/29 07:37:57;;;;;;;23.35;10.27;;;;;;;19.85;100.00;99166.25;5588599;31;35307;-67
2023/08/29 07:41:01;;;;;;;15.63;9.95;;;;;;;19.90;100.00;99160.09;5589098;31;34648;-69
2023/08/29 07:44:04;;;;;;;20.70;10.32;;;;;;;20.06;100.00;99150.28;5580552;31;262052;-70
2023/08/29 07:47:08;;;;;;;19.70;10.48;;;;;;;20.09;100.00;99115.56;5588527;31;34525;-67
2023/08/29 07:50:17;;;;;;;22.60;11.07;;;;;;;20.14;100.00;99120.19;5589346;31;34750;-67
2023/08/29 07:53:20;;;;;;;21.80;10.75;;;;;;;20.15;100.00;99133.38;5589455;31;34042;-67
2023/08/29 07:56:23;;;;;;;28.85;11.45;;;;;;;20.22;100.00;99147.44;5589368;31;34523;-68
2023/08/29 07:59:26;;;;;;;22.10;11.25;;;;;;;20.23;100.00;99143.66;5589209;31;33917;-68
2023/08/29 08:02:29;;;;;;;22.98;11.52;;;;;;;20.12;100.00;99128.50;5589220;31;33919;-68
2023/08/29 08:05:32;;;;;;;20.75;11.35;;;;;;;20.19;100.00;99136.34;5589186;31;34708;-68
2023/08/29 08:08:34;;;;;;;21.75;11.15;;;;;;;20.28;100.00;99159.81;5589093;31;33840;-68
2023/08/29 08:11:37;;;;;;;22.70;11.88;;;;;;;20.28;100.00;99186.75;5588292;31;33772;-68
2023/08/29 08:14:40;;;;;;;20.25;12.18;;;;;;;20.19;100.00;99184.81;5589052;31;34626;-68
2023/08/29 08:17:43;;;;;;;24.65;11.68;;;;;;;20.26;100.00;99177.34;5588251;31;33944;-67
2023/08/29 08:20:46;;;;;;;24.65;12.45;;;;;;;20.28;100.00;99169.81;5588813;31;33813;-68
2023/08/29 08:23:49;;;;;;;20.83;11.98;;;;;;;20.35;100.00;99173.09;5588100;31;33790;-68
2023/08/29 08:26:52;;;;;;;22.42;10.20;;;;;;;20.43;100.00;99172.59;5589146;31;34109;-68
2023/08/29 08:29:56;;;;;;;27.58;10.00;;;;;;;20.45;100.00;99189.34;5588701;31;33907;-68
2023/08/29 08:32:59;;;;;;;22.67;10.57;;;;;;;20.16;100.00;99212.28;5588887;31;33898;-68
2023/08/29 08:36:03;;;;;;;29.52;11.77;;;;;;;19.96;100.00;99235.28;5588897;31;34712;-68
2023/08/29 08:39:06;;;;;;;21.62;11.05;;;;;;;20.05;100.00;99254.47;5588608;31;34451;-69
2023/08/29 08:42:11;;;;;;;26.70;13.15;;;;;;;20.13;100.00;99263.97;5587924;31;34511;-70
2023/08/29 08:45:14;;;;;;;25.88;12.57;;;;;;;20.18;100.00;99262.13;5588744;31;33765;-71
2023/08/29 08:48:19;;;;;;;29.48;13.65;;;;;;;20.10;100.00;99286.81;5587780;31;34018;-71
2023/08/29 08:51:24;;;;;;;29.83;13.75;;;;;;;19.99;100.00;99295.88;5587602;31;33925;-72
2023/08/29 08:54:27;;;;;;;33.85;14.43;;;;;;;20.03;100.00;99302.38;5588235;31;33854;-72
2023/08/29 08:57:30;;;;;;;31.25;14.00;;;;;;;19.95;100.00;99290.19;5588342;31;33972;-74
2023/08/29 09:00:33;;;;;;;22.40;12.05;;;;;;;19.91;100.00;99274.78;5588585;31;33886;-73
2023/08/29 09:03:38;;;;;;;22.92;11.10;;;;;;;19.87;100.00;99277.19;5587288;31;33909;-74
2023/08/29 09:06:41;;;;;;;25.25;12.15;;;;;;;19.67;100.00;99290.44;5587951;31;33584;-74
2023/08/29 09:10:04;;;;;;;22.00;11.10;;;;;;;19.62;100.00;99287.69;5587181;31;33842;-77
2023/08/29 09:13:15;;;;;;;24.58;13.07;;;;;;;19.55;100.00;99278.22;5587879;31;33968;-74
2023/08/29 09:16:21;;;;;;;23.65;12.52;;;;;;;19.48;100.00;99264.94;5588010;31;34517;-75
2023/08/29 09:19:25;;;;;;;22.52;11.95;;;;;;;19.58;100.00;99256.97;5587381;31;34699;-76
2023/08/29 09:22:28;;;;;;;22.55;10.82;;;;;;;19.56;100.00;99242.97;5587858;31;33954;-76
2023/08/29 09:25:31;;;;;;;21.87;12.73;;;;;;;19.55;100.00;99240.53;5587038;31;33766;-76
2023/08/29 09:28:34;;;;;;;21.33;10.93;;;;;;;19.62;100.00;99230.38;5588095;31;33808;-77
2023/08/29 09:31:36;;;;;;;26.17;12.88;;;;;;;19.60;100.00;99214.50;5586989;31;33789;-76
2023/08/29 09:34:40;;;;;;;19.52;12.02;;;;;;;19.61;100.00;99204.53;5588630;31;33935;-76
2023/08/29 09:37:50;;;;;;;22.27;11.48;;;;;;;19.53;100.00;99184.28;5590449;31;34009;-77
2023/08/29 09:40:55;;;;;;;22.67;11.20;;;;;;;19.40;100.00;99169.34;5590439;31;34521;-77
2023/08/29 09:43:58;;;;;;;21.33;11.18;;;;;;;19.43;100.00;99166.16;5592446;31;34416;-77
2023/08/29 09:47:01;;;;;;;23.05;11.60;;;;;;;19.45;100.00;99177.50;5592634;31;33906;-76
2023/08/29 09:50:05;;;;;;;16.12;10.25;;;;;;;19.47;100.00;99151.16;5591886;31;33841;-74
2023/08/29 09:53:08;;;;;;;22.92;11.20;;;;;;;19.44;100.00;99146.28;5590507;31;34560;-74
2023/08/29 09:56:12;;;;;;;19.15;10.32;;;;;;;19.44;100.00;99159.75;5590369;31;34497;-74
2023/08/29 09:59:17;;;;;;;16.73;8.93;;;;;;;19.58;100.00;99154.75;5590216;31;33928;-73
2023/08/29 10:02:21;;;;;;;14.93;8.80;;;;;;;19.53;100.00;99152.84;5590344;31;34060;-73
2023/08/29 10:05:26;;;;;;;17.15;8.93;;;;;;;19.28;100.00;99152.56;5589978;31;34481;-72
2023/08/29 10:08:42;;;;;;;15.48;8.73;;;;;;;19.33;100.00;99130.28;5590155;31;35067;-71
2023/08/29 10:11:46;;;;;;;19.75;9.40;;;;;;;19.32;100.00;99147.47;5590746;31;33302;-70
2023/08/29 10:14:57;;;;;;;17.08;9.88;;;;;;;19.22;100.00;99158.16;5590125;31;33817;-70
2023/08/29 10:18:01;;;;;;;13.98;8.95;;;;;;;19.16;100.00;99165.34;5589860;31;34002;-70
2023/08/29 10:21:04;;;;;;;18.83;9.27;;;;;;;19.23;100.00;99160.56;5590136;31;33815;-70
2023/08/29 10:24:08;;;;;;;17.23;9.63;;;;;;;19.07;100.00;99173.03;5590265;31;34008;-70
2023/08/29 10:27:13;;;;;;;18.02;10.73;;;;;;;19.02;100.00;99186.44;5590254;31;33938;-70
2023/08/29 10:30:16;;;;;;;17.25;11.00;;;;;;;19.06;100.00;99197.50;5589458;31;33852;-71
2023/08/29 10:33:20;;;;;;;15.88;11.40;;;;;;;19.09;100.00;99215.78;5590125;31;33817;-72
2023/08/29 10:36:25;;;;;;;19.23;11.30;;;;;;;19.13;100.00;99216.91;5589993;31;33825;-73
2023/08/29 10:39:29;;;;;;;20.77;12.23;;;;;;;19.18;100.00;99208.09;5591124;31;34033;-74
2023/08/29 10:42:49;;;;;;;19.77;11.23;;;;;;;19.20;100.00;99206.78;5591923;31;34108;-73
2023/08/29 10:45:51;;;;;;;19.20;12.50;;;;;;;19.40;100.00;99180.13;5589076;31;33831;-71
2023/08/29 10:48:58;;;;;;;18.65;11.30;;;;;;;19.56;100.00;99173.00;5590288;31;33986;-70
2023/08/29 10:52:08;;;;;;;20.45;11.40;;;;;;;19.91;100.00;99162.56;5589779;31;34530;-69
2023/08/29 10:55:23;;;;;;;17.45;11.07;;;;;;;21.14;100.00;99151.38;5589831;31;34482;-68
2023/08/29 10:58:40;;;;;;;16.10;9.80;;;;;;;21.51;100.00;99143.88;5589450;31;33422;-68
2023/08/29 11:01:43;;;;;;;12.13;8.77;;;;;;;21.13;100.00;99147.03;5589769;31;34459;-67
2023/08/29 11:04:46;;;;;;;13.30;7.62;;;;;;;22.24;100.00;99151.69;5589215;31;34584;-67
2023/08/29 11:07:53;;;;;;;16.92;7.47;;;;;;;25.62;100.00;99152.59;5589582;31;33743;-67
2023/08/29 11:11:21;;;;;;;11.93;6.30;;;;;;;26.99;100.00;99142.72;5590050;31;33992;-66
2023/08/29 11:14:24;;;;;;;14.65;6.22;;;;;;;26.74;100.00;99127.72;5589515;31;33860;-67
2023/08/29 11:17:27;;;;;;;15.27;6.50;;;;;;;26.85;100.00;99114.69;5589611;31;33935;-67
2023/08/29 11:20:32;;;;;;;12.27;5.87;;;;;;;26.06;100.00;99101.28;5589709;31;33844;-67
2023/08/29 11:23:47;;;;;;;11.12;5.78;;;;;;;27.93;100.00;99094.41;5589449;31;33994;-68
2023/08/29 11:26:58;;;;;;;13.77;5.37;;;;;;;28.88;100.00;99072.97;5589470;31;34963;-67
2023/08/29 11:30:02;;;;;;;11.90;5.40;;;;;;;28.15;100.00;99079.16;5588863;31;33753;-69
2023/08/29 11:33:08;;;;;;;11.15;5.47;;;;;;;28.34;100.00;99079.72;5589540;31;34846;-70
2023/08/29 11:36:11;;;;;;;8.63;5.05;;;;;;;27.01;100.00;99083.34;5589275;31;34559;-70
2023/08/29 11:39:17;;;;;;;13.75;5.40;;;;;;;27.80;100.00;99089.06;5589281;31;34939;-70
2023/08/29 11:42:21;;;;;;;12.88;5.72;;;;;;;27.67;100.00;99088.03;5575876;31;34115;-70
2023/08/29 11:45:44;;;;;;;10.88;5.10;;;;;;;28.28;100.00;99086.44;5589145;31;33875;-71
2023/08/29 11:48:50;;;;;;;10.70;5.00;;;;;;;31.27;73.67;99088.94;5589259;31;33966;-70
2023/08/29 11:51:54;;;;;;;10.70;5.05;;;;;;;30.47;77.54;99079.13;5589337;31;33990;-70
2023/08/29 11:54:56;;;;;;;9.65;4.80;;;;;;;29.42;93.74;99089.88;5589361;31;32508;-71
2023/08/29 11:58:02;;;;;;;12.25;4.97;;;;;;;31.42;76.25;99096.50;5589192;31;34871;-69
2023/08/29 12:01:10;;;;;;;13.93;5.57;;;;;;;29.15;92.51;99107.34;5589030;31;34089;-70
2023/08/29 12:04:14;;;;;;;9.10;4.60;;;;;;;29.63;97.11;99113.47;5589213;31;33873;-70
2023/08/29 12:07:18;;;;;;;11.48;4.62;;;;;;;32.46;65.67;99129.16;5588894;31;33807;-71
2023/08/29 12:10:21;;;;;;;14.43;5.25;;;;;;;34.53;56.23;99125.69;5588596;31;33826;-69
2023/08/29 12:13:24;;;;;;;7.57;4.40;;;;;;;35.35;51.93;99122.88;5588896;31;34076;-69
2023/08/29 12:16:28;;;;;;;8.43;4.40;;;;;;;34.68;52.67;99122.16;5589308;31;33992;-69
2023/08/29 12:19:34;;;;;;;8.38;4.00;;;;;;;36.20;51.18;99121.78;5588750;31;34620;-70
2023/08/29 12:22:39;;;;;;;11.30;4.28;;;;;;;37.31;46.96;99123.91;5588811;31;33887;-71
2023/08/29 12:25:42;;;;;;;9.52;4.35;;;;;;;37.85;43.86;99119.81;5588805;31;33925;-68
2023/08/29 12:28:44;;;;;;;8.15;4.37;;;;;;;35.85;47.07;99142.03;5588700;31;33786;-69
2023/08/29 12:31:47;;;;;;;10.30;4.57;;;;;;;37.19;44.47;99126.91;5588736;31;33775;-69
2023/08/29 12:34:50;;;;;;;9.35;4.85;;;;;;;34.45;50.79;99119.22;5588682;31;34889;-67
2023/08/29 12:37:53;;;;;;;7.12;4.43;;;;;;;30.22;72.80;99116.41;5588680;31;33886;-69
2023/08/29 12:40:56;;;;;;;6.68;3.55;;;;;;;32.89;65.21;99133.28;5587603;31;33463;-67
2023/08/29 12:43:59;;;;;;;7.22;3.78;;;;;;;33.50;55.53;99140.25;5587541;31;33984;-67
2023/08/29 12:47:02;;;;;;;9.82;3.58;;;;;;;33.49;52.42;99135.13;5587638;31;33985;-67
2023/08/29 12:50:06;;;;;;;8.55;3.55;;;;;;;31.06;59.23;99127.28;5588292;31;34466;-67
2023/08/29 12:53:09;;;;;;;7.97;3.30;;;;;;;30.28;62.08;99123.31;5588023;31;34917;-67
2023/08/29 12:56:12;;;;;;;6.57;3.50;;;;;;;29.84;65.29;99119.06;5588174;31;33847;-67
2023/08/29 12:59:15;;;;;;;9.70;3.60;;;;;;;29.95;66.84;99116.81;5587384;31;35101;-67
2023/08/29 13:02:18;;;;;;;6.30;3.60;;;;;;;29.89;63.57;99132.59;5588215;31;33805;-67
2023/08/29 13:05:21;;;;;;;16.00;4.10;;;;;;;29.36;65.96;99122.81;5587696;31;33797;-66
2023/08/29 13:08:24;;;;;;;6.72;3.78;;;;;;;29.01;71.85;99118.44;5587667;31;33873;-68
2023/08/29 13:11:27;;;;;;;8.45;3.60;;;;;;;30.60;65.67;99114.47;5590167;31;34863;-67
2023/08/29 13:14:29;;;;;;;8.50;3.78;;;;;;;31.28;60.12;99123.38;5590792;31;34056;-66
2023/08/29 13:17:40;;;;;;;8.88;3.87;;;;;;;30.49;62.13;99128.88;5590455;31;33804;-67
2023/08/29 13:20:43;;;;;;;7.87;4.00;;;;;;;29.43;66.44;99136.00;5590314;31;34493;-68
2023/08/29 13:23:46;;;;;;;7.70;4.00;;;;;;;28.07;75.51;99130.59;5590237;31;33920;-66
2023/08/29 13:26:49;;;;;;;9.57;3.87;;;;;;;29.03;73.99;99135.31;5590283;31;33837;-66
2023/08/29 13:29:52;;;;;;;7.30;3.83;;;;;;;29.88;66.96;99127.41;5589521;31;33741;-66
2023/08/29 13:32:55;;;;;;;10.30;3.92;;;;;;;28.52;73.85;99122.31;5590242;31;34793;-65
2023/08/29 13:35:58;;;;;;;10.45;4.07;;;;;;;28.56;82.23;99133.41;5589712;31;33710;-68
2023/08/29 13:39:01;;;;;;;11.50;4.20;;;;;;;28.16;85.25;99119.75;5589399;31;34052;-67
2023/08/29 13:42:04;;;;;;;6.37;3.47;;;;;;;29.57;75.67;99130.38;5590016;31;33935;-67
2023/08/29 13:45:07;;;;;;;9.98;3.80;;;;;;;33.11;56.52;99136.31;5589923;31;34446;-67
2023/08/29 13:48:10;;;;;;;8.55;3.87;;;;;;;30.35;64.82;99122.81;5590139;31;33889;-66
2023/08/29 13:51:13;;;;;;;8.70;3.95;;;;;;;28.85;75.12;99117.31;5589335;31;34799;-67
2023/08/29 13:54:16;;;;;;;11.65;4.95;;;;;;;29.66;74.70;99120.22;5589818;31;33848;-67
2023/08/29 13:57:20;;;;;;;9.48;3.92;;;;;;;28.42;85.93;99115.19;5589938;31;34042;-67
2023/08/29 14:00:24;;;;;;;8.82;3.70;;;;;;;26.94;100.00;99115.63;5576050;31;33688;-67
2023/08/29 14:03:29;;;;;;;9.10;4.03;;;;;;;27.42;100.00;99099.53;5589083;31;33815;-66
2023/08/29 14:06:40;;;;;;;9.63;4.00;;;;;;;26.36;100.00;99094.50;5589822;31;32746;-67